Time;durP1;ratioP1;P1;durP2;ratioP2;P2;SDS_P1;SDS_P2;PMS_P1;PMS_P2;Temp;Humidity;BMP_temperature;BMP_pressure;BME280_temperature;BME280_humidity;BME280_pressure;Samples;Min_cycle;Max_cycle;Signal;HPM_P1;HPM_P2
2021/03/08 00:03:35;;;;;;;6.55;4.57;;;;;;;-1.43;100.00;100401.09;20790408;28;20247;-60
2021/03/08 00:13:36;;;;;;;6.43;4.30;;;;;;;-1.50;100.00;100392.50;20748493;28;20326;-60
2021/03/08 00:23:36;;;;;;;5.50;4.50;;;;;;;-1.65;100.00;100388.34;20718165;28;20904;-61
2021/03/08 00:33:37;;;;;;;6.18;4.28;;;;;;;-1.79;100.00;100384.16;20720895;28;20787;-61
2021/03/08 00:43:37;;;;;;;7.90;4.90;;;;;;;-1.93;100.00;100369.50;20710652;28;20254;-60
2021/03/08 01:03:47;;;;;;;7.10;5.27;;;;;;;-2.30;100.00;100365.66;20458091;27;7816741;-60
2021/03/08 01:13:47;;;;;;;8.23;4.93;;;;;;;-2.70;100.00;100313.81;20703879;28;20251;-59
2021/03/08 01:23:48;;;;;;;7.72;5.03;;;;;;;-2.42;100.00;100363.16;20701589;28;20923;-60
2021/03/08 01:33:51;;;;;;;6.13;4.60;;;;;;;-2.54;100.00;100356.31;20705788;28;20231;-60
2021/03/08 01:43:51;;;;;;;5.97;4.30;;;;;;;-2.71;100.00;100364.31;20681724;28;20772;-60
2021/03/08 01:53:52;;;;;;;7.53;5.45;;;;;;;-2.92;100.00;100354.09;20696129;28;20213;-60
2021/03/08 02:03:59;;;;;;;5.90;4.70;;;;;;;-3.00;100.00;100361.97;20837589;28;20271;-59
2021/03/08 02:14:29;;;;;;;5.40;4.33;;;;;;;-3.14;100.00;100378.66;20783168;28;21014;-59
2021/03/08 02:24:54;;;;;;;8.13;5.50;;;;;;;-3.32;100.00;100380.50;20784781;28;20220;-60
2021/03/08 02:35:10;;;;;;;9.77;5.77;;;;;;;-3.33;100.00;100394.41;20817108;28;20224;-61
2021/03/08 02:45:14;;;;;;;7.43;5.50;;;;;;;-3.41;100.00;100391.00;20788812;28;20309;-60
2021/03/08 02:55:14;;;;;;;9.80;6.23;;;;;;;-3.50;100.00;100400.66;20765198;28;20235;-60
2021/03/08 03:05:16;;;;;;;9.50;6.22;;;;;;;-3.58;100.00;100413.69;20748084;28;20328;-64
2021/03/08 03:15:16;;;;;;;8.23;6.10;;;;;;;-3.65;100.00;100432.88;20797552;28;20280;-60
2021/03/08 03:25:20;;;;;;;8.63;6.10;;;;;;;-3.80;100.00;100449.44;20795610;28;20232;-62
2021/03/08 03:35:22;;;;;;;8.70;6.53;;;;;;;-3.92;100.00;100453.84;20789756;28;20258;-63
2021/03/08 03:45:25;;;;;;;10.80;7.33;;;;;;;-4.04;100.00;100466.03;20782887;28;20223;-62
2021/03/08 03:55:26;;;;;;;9.13;7.00;;;;;;;-4.08;100.00;100463.44;20775089;28;20228;-61
2021/03/08 04:05:27;;;;;;;9.57;6.33;;;;;;;-4.18;100.00;100480.84;20775417;28;20282;-61
2021/03/08 04:45:54;;;;;;;10.87;6.93;;;;;;;-3.97;100.00;100490.34;20580740;27;7828618;-62
2021/03/08 04:55:54;;;;;;;9.17;6.60;;;;;;;-3.93;100.00;100499.91;20873225;28;20223;-62
2021/03/08 05:16:06;;;;;;;8.77;6.73;;;;;;;-3.95;100.00;100511.19;20680526;27;7774849;-62
2021/03/08 05:26:07;;;;;;;12.17;7.23;;;;;;;-3.85;100.00;100515.50;20947032;28;20237;-64
2021/03/08 05:36:08;;;;;;;8.23;5.67;;;;;;;-3.77;100.00;100526.78;20937013;28;20755;-62
2021/03/08 05:46:16;;;;;;;10.30;6.30;;;;;;;-3.69;100.00;100525.03;20942726;28;20255;-67
2021/03/08 05:56:30;;;;;;;9.77;5.70;;;;;;;-3.64;100.00;100531.09;20943549;28;20242;-65
2021/03/08 06:06:52;;;;;;;6.87;5.40;;;;;;;-3.56;100.00;100542.38;20918868;28;20226;-66
2021/03/08 06:16:54;;;;;;;8.07;5.20;;;;;;;-3.38;100.00;100552.72;20904178;28;20306;-66
2021/03/08 06:26:55;;;;;;;10.03;6.67;;;;;;;-3.00;100.00;100564.72;20843748;28;20215;-66
2021/03/08 06:47:06;;;;;;;11.10;6.60;;;;;;;-2.36;100.00;100590.44;20774725;27;7907800;-69
2021/03/08 06:57:23;;;;;;;10.13;5.67;;;;;;;-2.01;100.00;100598.84;21032382;28;20259;-66
2021/03/08 07:07:23;;;;;;;8.07;4.93;;;;;;;-1.72;100.00;100610.78;21049645;28;20292;-67
2021/03/08 07:17:34;;;;;;;9.43;5.23;;;;;;;-1.69;100.00;100584.63;21030898;28;20227;-69
2021/03/08 07:27:42;;;;;;;5.40;3.87;;;;;;;-1.29;100.00;100605.97;21047656;28;20328;-68
2021/03/08 07:37:45;;;;;;;6.70;4.57;;;;;;;-0.83;100.00;100627.22;21028487;28;20244;-69
2021/03/08 07:47:46;;;;;;;8.17;5.20;;;;;;;-0.55;100.00;100617.22;21046448;28;20590;-69
2021/03/08 07:57:46;;;;;;;6.73;4.10;;;;;;;-0.44;100.00;100626.66;20991953;28;20226;-68
2021/03/08 08:07:47;;;;;;;6.60;4.75;;;;;;;-0.15;100.00;100641.09;20988646;28;20298;-68
2021/03/08 08:17:48;;;;;;;5.30;3.40;;;;;;;0.00;100.00;100627.75;20970118;28;20812;-68
2021/03/08 08:27:49;;;;;;;4.23;3.13;;;;;;;0.36;100.00;100653.34;20969698;28;20871;-68
2021/03/08 08:38:14;;;;;;;4.03;2.97;;;;;;;0.89;97.78;100675.16;20951350;28;20250;-66
2021/03/08 08:48:15;;;;;;;3.10;2.10;;;;;;;0.83;96.25;100677.91;20986080;28;20226;-67
2021/03/08 08:58:45;;;;;;;3.30;2.50;;;;;;;1.15;92.46;100689.53;20985029;28;20227;-67
2021/03/08 09:08:54;;;;;;;4.77;2.67;;;;;;;0.80;91.47;100685.84;20980286;28;20215;-67
2021/03/08 09:19:21;;;;;;;4.53;2.10;;;;;;;1.12;91.42;100706.22;20982858;28;20223;-66
2021/03/08 09:29:22;;;;;;;4.70;2.93;;;;;;;1.68;93.15;100694.56;20982338;28;20211;-66
2021/03/08 09:39:22;;;;;;;5.43;3.30;;;;;;;1.80;90.60;100672.38;20981479;28;20565;-63
2021/03/08 09:49:23;;;;;;;4.27;2.83;;;;;;;1.84;91.46;100689.81;20963213;28;20220;-63
2021/03/08 09:59:23;;;;;;;2.57;2.10;;;;;;;1.75;89.51;100706.66;20980287;28;20333;-62
2021/03/08 10:09:24;;;;;;;2.73;1.80;;;;;;;1.72;85.53;100722.50;20979559;28;20625;-62
2021/03/08 10:19:24;;;;;;;3.60;2.40;;;;;;;1.47;87.24;100726.56;20979172;28;20222;-61
2021/03/08 10:29:25;;;;;;;3.40;2.27;;;;;;;1.81;88.02;100732.81;20960893;28;20219;-61
2021/03/08 10:39:25;;;;;;;2.53;2.10;;;;;;;2.26;88.97;100727.44;20960114;28;20235;-62
2021/03/08 10:49:26;;;;;;;2.50;1.65;;;;;;;2.53;82.43;100739.06;20960357;28;20688;-63
2021/03/08 10:59:29;;;;;;;3.00;1.97;;;;;;;2.93;80.93;100743.31;20977560;28;20221;-61
2021/03/08 11:09:36;;;;;;;4.17;2.07;;;;;;;2.85;72.94;100767.25;20977398;28;20249;-63
2021/03/08 11:19:36;;;;;;;3.43;2.63;;;;;;;1.63;77.52;100749.03;20976434;28;20233;-63
2021/03/08 11:29:39;;;;;;;3.77;2.83;;;;;;;2.03;82.97;100756.94;20892504;28;20988;-64
2021/03/08 11:39:53;;;;;;;3.93;2.30;;;;;;;2.12;76.47;100733.03;20959814;28;21420;-64
2021/03/08 11:49:56;;;;;;;2.60;1.90;;;;;;;2.71;77.74;100737.72;20960149;28;20224;-64
2021/03/08 11:59:57;;;;;;;2.43;1.70;;;;;;;3.31;77.79;100739.63;20956825;28;20776;-64
2021/03/08 12:10:07;;;;;;;4.10;1.90;;;;;;;3.26;74.01;100752.94;20943364;28;20229;-62
2021/03/08 12:20:10;;;;;;;2.97;2.63;;;;;;;2.31;78.24;100783.47;20886665;28;20841;-64
2021/03/08 12:30:11;;;;;;;4.27;2.40;;;;;;;0.59;96.45;100818.41;20872091;28;20215;-67
2021/03/08 12:40:12;;;;;;;3.83;2.80;;;;;;;0.07;100.00;100827.91;20871476;28;20232;-69
2021/03/08 12:50:20;;;;;;;4.20;2.67;;;;;;;-0.11;100.00;100813.25;20872753;28;20243;-69
2021/03/08 13:00:21;;;;;;;4.63;3.10;;;;;;;-0.10;100.00;100783.53;20871935;28;20780;-68
2021/03/08 13:10:21;;;;;;;6.10;3.80;;;;;;;0.20;100.00;100796.22;20871397;28;20227;-69
2021/03/08 13:20:22;;;;;;;5.87;3.37;;;;;;;0.51;100.00;100809.75;20870102;28;20231;-68
2021/03/08 13:30:23;;;;;;;5.10;3.60;;;;;;;0.66;100.00;100766.63;20914046;28;20786;-67
2021/03/08 13:40:24;;;;;;;5.70;3.00;;;;;;;0.95;100.00;100801.16;20900871;28;20676;-69
2021/03/08 13:50:24;;;;;;;6.07;3.40;;;;;;;0.90;100.00;100789.00;20902177;28;20246;-65
2021/03/08 14:00:25;;;;;;;7.13;4.57;;;;;;;1.46;100.00;100803.72;20881873;28;20242;-67
2021/03/08 14:10:25;;;;;;;4.73;2.63;;;;;;;1.54;93.84;100790.44;20892753;28;20691;-64
2021/03/08 14:20:26;;;;;;;3.70;2.67;;;;;;;1.98;89.20;100810.56;20885875;28;20362;-64
2021/03/08 14:30:26;;;;;;;3.23;2.17;;;;;;;2.32;86.93;100814.19;20677097;28;20309;-62
2021/03/08 14:40:27;;;;;;;2.07;1.87;;;;;;;2.06;81.01;100827.03;20731130;28;20256;-60
2021/03/08 14:50:28;;;;;;;4.20;2.80;;;;;;;1.60;81.18;100835.88;20706242;28;20244;-66
2021/03/08 15:00:28;;;;;;;4.17;2.60;;;;;;;1.24;90.21;100854.97;20759021;28;20228;-65
2021/03/08 15:10:29;;;;;;;4.17;2.87;;;;;;;0.90;92.36;100839.78;20724578;28;20263;-61
2021/03/08 15:20:29;;;;;;;8.03;4.63;;;;;;;0.69;96.92;100827.00;20735925;28;20233;-58
2021/03/08 15:30:30;;;;;;;4.63;3.10;;;;;;;0.67;96.44;100842.78;20731368;28;20554;-58
2021/03/08 15:40:36;;;;;;;5.93;3.00;;;;;;;0.80;95.90;100848.69;20682555;28;20229;-63
2021/03/08 15:50:37;;;;;;;3.70;2.50;;;;;;;0.65;95.97;100848.94;20731146;28;20285;-61
2021/03/08 16:00:37;;;;;;;21.37;11.67;;;;;;;0.36;91.19;100846.75;20726912;28;21038;-63
2021/03/08 16:10:38;;;;;;;15.80;7.53;;;;;;;-0.23;95.06;100797.69;20726509;28;20243;-65
2021/03/08 16:20:38;;;;;;;15.90;7.27;;;;;;;-0.16;96.77;100857.94;20716564;28;20248;-66
2021/03/08 16:30:42;;;;;;;7.33;3.60;;;;;;;-0.50;95.68;100817.25;20675426;28;20735;-67
2021/03/08 16:40:43;;;;;;;8.00;3.97;;;;;;;-0.09;97.44;100879.69;20714126;28;20506;-68
2021/03/08 16:50:44;;;;;;;8.97;5.27;;;;;;;-0.10;95.29;100878.81;20724302;28;20315;-67
2021/03/08 17:00:45;;;;;;;9.57;6.00;;;;;;;-0.38;97.29;100854.69;20735136;28;20247;-66
2021/03/08 17:10:45;;;;;;;12.07;6.22;;;;;;;-0.29;95.23;100910.53;20739079;28;20259;-67
2021/03/08 17:20:46;;;;;;;9.68;5.22;;;;;;;-0.48;96.15;100918.56;20706919;28;20297;-66
2021/03/08 17:50:50;;;;;;;11.90;7.07;;;;;;;-1.28;98.91;100911.38;20417875;27;7806736;-65
2021/03/08 18:00:51;;;;;;;12.17;7.80;;;;;;;-1.31;98.78;100951.53;20713658;28;22105;-64
2021/03/08 18:10:52;;;;;;;9.40;5.47;;;;;;;-1.43;98.47;100958.59;20674570;28;20240;-65
2021/03/08 18:20:52;;;;;;;10.00;5.90;;;;;;;-1.83;100.00;100933.50;20671878;28;20247;-65
2021/03/08 18:30:53;;;;;;;5.80;4.50;;;;;;;-1.83;100.00;100967.50;20693780;28;20664;-65
2021/03/08 18:40:54;;;;;;;8.63;5.03;;;;;;;-1.83;100.00;100984.94;20700270;28;20339;-65
2021/03/08 18:50:54;;;;;;;11.00;5.17;;;;;;;-1.98;100.00;100996.31;20788259;28;20254;-65
2021/03/08 19:00:55;;;;;;;12.87;5.43;;;;;;;-2.02;100.00;100986.72;20734296;28;20308;-65
2021/03/08 19:10:55;;;;;;;7.83;4.93;;;;;;;-2.16;100.00;100996.34;20783749;28;20233;-65
2021/03/08 19:20:56;;;;;;;15.70;8.40;;;;;;;-2.19;100.00;101012.03;20809561;28;20239;-64
2021/03/08 19:30:56;;;;;;;15.90;8.37;;;;;;;-2.34;99.93;101010.31;20823783;28;20326;-69
2021/03/08 19:40:57;;;;;;;14.43;7.25;;;;;;;-2.26;100.00;101020.75;20800036;28;20242;-67
2021/03/08 19:50:57;;;;;;;15.98;7.80;;;;;;;-2.34;100.00;101027.72;20777072;28;20290;-65
2021/03/08 20:00:58;;;;;;;16.20;9.10;;;;;;;-3.21;100.00;100896.25;20772692;28;20239;-69
2021/03/08 20:10:58;;;;;;;24.73;9.80;;;;;;;-2.65;100.00;101009.44;20769031;28;21468;-67
2021/03/08 20:20:59;;;;;;;24.37;11.30;;;;;;;-2.57;100.00;101036.44;20736372;28;20598;-66
2021/03/08 20:41:09;;;;;;;27.33;12.90;;;;;;;-2.74;100.00;101043.38;20517040;27;7568845;-66
2021/03/08 20:51:09;;;;;;;14.90;9.30;;;;;;;-2.89;100.00;101032.91;20766611;28;22171;-65
2021/03/08 21:01:09;;;;;;;26.20;11.77;;;;;;;-2.90;100.00;101041.66;20790364;28;20259;-65
2021/03/08 21:11:10;;;;;;;14.73;7.40;;;;;;;-2.97;100.00;101035.50;20764099;28;20518;-63
2021/03/08 21:21:11;;;;;;;15.10;8.17;;;;;;;-3.14;100.00;101012.88;20802146;28;20231;-62
2021/03/08 21:31:13;;;;;;;19.50;9.50;;;;;;;-3.08;100.00;101036.38;20775958;28;20510;-63
2021/03/08 21:41:14;;;;;;;18.50;10.67;;;;;;;-3.29;100.00;101029.34;20818202;28;20256;-64
2021/03/08 22:01:24;;;;;;;14.83;8.30;;;;;;;-3.28;100.00;101047.63;20536566;27;7804823;-65
2021/03/08 22:11:25;;;;;;;17.37;8.70;;;;;;;-3.28;100.00;101050.22;20800969;28;20684;-64
2021/03/08 22:21:25;;;;;;;11.10;6.10;;;;;;;-3.35;100.00;101048.44;20800535;28;20275;-63
2021/03/08 22:31:32;;;;;;;14.60;6.73;;;;;;;-3.40;100.00;101059.75;20799948;28;20228;-62
2021/03/08 22:41:33;;;;;;;14.30;7.53;;;;;;;-3.45;100.00;101059.72;20799477;28;20350;-63
2021/03/08 22:51:40;;;;;;;14.53;6.20;;;;;;;-3.50;100.00;101061.41;20800220;28;20771;-63
2021/03/08 23:01:40;;;;;;;10.77;6.40;;;;;;;-3.62;100.00;101058.75;20880726;28;20227;-62
2021/03/08 23:11:41;;;;;;;15.70;7.82;;;;;;;-3.69;100.00;101054.38;20829044;28;20231;-62
2021/03/08 23:21:41;;;;;;;15.52;8.00;;;;;;;-3.74;100.00;101070.00;20822850;28;20224;-62
2021/03/08 23:31:42;;;;;;;20.17;10.13;;;;;;;-3.80;100.00;101071.72;20822713;28;20229;-62
2021/03/08 23:41:42;;;;;;;16.27;8.43;;;;;;;-3.95;100.00;101074.22;20822454;28;20232;-62
